Circle Line Brooklyn — WDE8160 — position and weather

sailwx.info

Track history (hours):
 
Tides and Currents Weather Stations Pressure Air Temp Water Temp Dewpoint Dewpoint Depression Visibility Wind Speed Wind Dir Waves Ship Positions

Circle Line Brooklyn

Owner: Circle Line Sight Seeing Yachts Inc., New York, NY. More information available from US FCC via Universal Licensing System and Coast Guard Vessel Documentation Center.

Last reported at 2016-May-27 20:22 UTC. Time now 2016-May-28 11:55 UTC.
Position N 40°44' W 074°01'.

MMSI: 367402250.

Date/timePositionNaut miles runAvg speedWind from/ knotsBaromVisibWave heightAir tempDewpointWater temp
2016-May-27 20:22N 40°44' W 074°01'3 3.7
2016-May-27 19:33N 40°41' W 074°03'5 4.9
2016-May-27 18:33N 40°46' W 074°00'3 3.4
2016-May-27 17:33N 40°43' W 073°59'3 3.4
2016-May-27 16:34N 40°46' W 074°00'0 0.3
2016-May-27 15:33N 40°46' W 074°00'0 0.3
2016-May-27 14:33N 40°46' W 074°00'2 0.2
2016-May-27 00:33N 40°44' W 074°01'2 2.3
2016-May-26 23:33N 40°42' W 073°59'4 3.5
2016-May-26 22:33N 40°46' W 074°00'0 0.0
2016-May-26 21:33N 40°46' W 074°00'2 0.9
2016-May-26 19:17N 40°45' W 073°57'5 6.2
2016-May-26 18:33N 40°42' W 074°02'4 3.5
2016-May-26 17:31N 40°46' W 074°00'3 1.8
2016-May-26 15:33N 40°42' W 073°59'3 3.4
2016-May-26 14:34N 40°46' W 074°00'2 0.1
2016-May-26 00:33N 40°44' W 074°01'3 2.5
2016-May-25 23:34N 40°43' W 073°58'3 0.8
2016-May-25 20:20N 40°44' W 074°01'4 4.7
2016-May-25 19:33N 40°41' W 074°01'5 1.5
2016-May-25 16:07N 40°46' W 074°00'3 5.0
2016-May-25 15:32N 40°43' W 073°58'3 0.1
2016-May-24 20:25N 40°45' W 074°01'4 4.6
2016-May-24 19:34N 40°41' W 074°03'4 1.8
2016-May-24 17:33N 40°43' W 073°58'2 1.1
2016-May-24 15:22N 40°44' W 074°01'1 0.1
2016-May-24 00:33N 40°43' W 074°01'2 2.1
2016-May-23 23:34N 40°42' W 073°59'3 3.3
2016-May-23 22:31N 40°46' W 074°00'0 0.0
2016-May-23 21:31N 40°46' W 074°00'0 0.2
2016-May-23 20:33N 40°46' W 074°00'5 4.9
2016-May-23 19:33N 40°41' W 074°02'5 4.6
2016-May-23 18:31N 40°46' W 074°00'3 3.3
2016-May-23 17:34N 40°43' W 073°58'3 3.1
2016-May-23 16:33N 40°46' W 074°00'0 0.0
2016-May-23 15:33N 40°46' W 074°00'0 0.0
2016-May-23 14:33N 40°46' W 074°00'0 0.0
2016-May-23 13:33N 40°46' W 074°00'1 0.1
2016-May-23 00:33N 40°45' W 074°01'2 2.2
2016-May-22 23:33N 40°45' W 073°58'2 2.0
2016-May-22 22:33N 40°46' W 074°00'0 0.0
2016-May-22 21:33N 40°46' W 074°00'2 0.8
2016-May-22 19:05N 40°45' W 073°57'610.5
2016-May-22 18:34N 40°41' W 074°02'6 1.7
2016-May-22 15:05N 40°46' W 073°57'611.4
2016-May-22 14:33N 40°41' W 074°03'2 0.2
2016-May-22 00:33N 40°44' W 074°01'2 2.5
2016-May-21 23:33N 40°43' W 073°58'3 0.8
2016-May-21 20:18N 40°44' W 074°01'3 1.0
2016-May-21 17:06N 40°46' W 073°57'610.7
2016-May-21 16:33N 40°41' W 074°02'4 0.2
2016-May-20 20:30N 40°45' W 074°01'4 4.7
2016-May-20 19:34N 40°41' W 074°03'3 1.6
2016-May-20 17:34N 40°43' W 073°59'2 1.0
2016-May-20 15:18N 40°44' W 074°01'2 0.1
2016-May-20 00:33N 40°42' W 074°02'1 1.2
2016-May-19 23:34N 40°42' W 074°00'3 1.1
2016-May-19 20:23N 40°45' W 074°01'1 0.3
2016-May-19 18:28N 40°46' W 074°00'2 1.7
2016-May-19 17:12N 40°45' W 073°57'6 9.3
2016-May-19 16:33N 40°41' W 074°03'5 0.1
2016-May-17 20:33N 40°46' W 074°00'  
Track history (hours):
 
Tides and Currents Weather Stations Pressure Air Temp Water Temp Dewpoint Dewpoint Depression Visibility Wind Speed Wind Dir Waves Ship Positions

Circle Line Brooklyn

Owner: Circle Line Sight Seeing Yachts Inc., New York, NY. More information available from US FCC via Universal Licensing System and Coast Guard Vessel Documentation Center.

Last reported at 2016-May-27 20:22 UTC. Time now 2016-May-28 11:55 UTC.
Position N 40°44' W 074°01'.

MMSI: 367402250.

Date/timePositionNaut miles runAvg speedWind from/ knotsBaromVisibWave heightAir tempDewpointWater temp
2016-May-27 20:22N 40°44' W 074°01'3 3.7
2016-May-27 19:33N 40°41' W 074°03'5 4.9
2016-May-27 18:33N 40°46' W 074°00'3 3.4
2016-May-27 17:33N 40°43' W 073°59'3 3.4
2016-May-27 16:34N 40°46' W 074°00'0 0.3
2016-May-27 15:33N 40°46' W 074°00'0 0.3
2016-May-27 14:33N 40°46' W 074°00'2 0.2
2016-May-27 00:33N 40°44' W 074°01'2 2.3
2016-May-26 23:33N 40°42' W 073°59'4 3.5
2016-May-26 22:33N 40°46' W 074°00'0 0.0
2016-May-26 21:33N 40°46' W 074°00'2 0.9
2016-May-26 19:17N 40°45' W 073°57'5 6.2
2016-May-26 18:33N 40°42' W 074°02'4 3.5
2016-May-26 17:31N 40°46' W 074°00'3 1.8
2016-May-26 15:33N 40°42' W 073°59'3 3.4
2016-May-26 14:34N 40°46' W 074°00'2 0.1
2016-May-26 00:33N 40°44' W 074°01'3 2.5
2016-May-25 23:34N 40°43' W 073°58'3 0.8
2016-May-25 20:20N 40°44' W 074°01'4 4.7
2016-May-25 19:33N 40°41' W 074°01'5 1.5
2016-May-25 16:07N 40°46' W 074°00'3 5.0
2016-May-25 15:32N 40°43' W 073°58'3 0.1
2016-May-24 20:25N 40°45' W 074°01'4 4.6
2016-May-24 19:34N 40°41' W 074°03'4 1.8
2016-May-24 17:33N 40°43' W 073°58'2 1.1
2016-May-24 15:22N 40°44' W 074°01'1 0.1
2016-May-24 00:33N 40°43' W 074°01'2 2.1
2016-May-23 23:34N 40°42' W 073°59'3 3.3
2016-May-23 22:31N 40°46' W 074°00'0 0.0
2016-May-23 21:31N 40°46' W 074°00'0 0.2
2016-May-23 20:33N 40°46' W 074°00'5 4.9
2016-May-23 19:33N 40°41' W 074°02'5 4.6
2016-May-23 18:31N 40°46' W 074°00'3 3.3
2016-May-23 17:34N 40°43' W 073°58'3 3.1
2016-May-23 16:33N 40°46' W 074°00'0 0.0
2016-May-23 15:33N 40°46' W 074°00'0 0.0
2016-May-23 14:33N 40°46' W 074°00'0 0.0
2016-May-23 13:33N 40°46' W 074°00'1 0.1
2016-May-23 00:33N 40°45' W 074°01'2 2.2
2016-May-22 23:33N 40°45' W 073°58'2 2.0
2016-May-22 22:33N 40°46' W 074°00'0 0.0
2016-May-22 21:33N 40°46' W 074°00'2 0.8
2016-May-22 19:05N 40°45' W 073°57'610.5
2016-May-22 18:34N 40°41' W 074°02'6 1.7
2016-May-22 15:05N 40°46' W 073°57'611.4
2016-May-22 14:33N 40°41' W 074°03'2 0.2
2016-May-22 00:33N 40°44' W 074°01'2 2.5
2016-May-21 23:33N 40°43' W 073°58'3 0.8
2016-May-21 20:18N 40°44' W 074°01'3 1.0
2016-May-21 17:06N 40°46' W 073°57'610.7
2016-May-21 16:33N 40°41' W 074°02'4 0.2
2016-May-20 20:30N 40°45' W 074°01'4 4.7
2016-May-20 19:34N 40°41' W 074°03'3 1.6
2016-May-20 17:34N 40°43' W 073°59'2 1.0
2016-May-20 15:18N 40°44' W 074°01'2 0.1
2016-May-20 00:33N 40°42' W 074°02'1 1.2
2016-May-19 23:34N 40°42' W 074°00'3 1.1
2016-May-19 20:23N 40°45' W 074°01'1 0.3
2016-May-19 18:28N 40°46' W 074°00'2 1.7
2016-May-19 17:12N 40°45' W 073°57'6 9.3
2016-May-19 16:33N 40°41' W 074°03'5 0.1
2016-May-17 20:33N 40°46' W 074°00'  

Dump ship's entire track history